»·PEaware :: N123SJ KSMX-KPRB

N123SJ :: KSMX-KPRB

FLIGHT INFORMATION

Flight Status: Arrived
Operator: Privately registered:
United States
More flights under this callsign
Pilot: Napoleon Ma Jr J. (21170)
Aircraft: CESSNA 172 SKYHAWK
(C172)
More flights by this aircraft type
Origin: KSMX Santa Maria Pub/Capt Hancock
United States
Destination: KPRB Paso Robles Mun
United States
More flights between these airports :: More routes between these airports
Route: MQO V113 PRB
File this flight plan on PilotEdge
Remarks: ODP
Altitude:
(Current/Filed)
6,000ft
Speed:
(Current/Filed)
115kts
Departed: 09-Feb-19 06:42 PM
Arrived: 09-Feb-19 07:48 PM
Distance/Time
Traveled:
47nm/1:06
Distance/Time
To Go:
Arrived

Flight Plot

Page will automatically refresh every two minutes.

Flight plan parsing failed; only flown route is shown


Map Options




Map Legend


Flown Route
Filed Route
Departure Airport
Arrival Airport
Navaid (VOR, NDB)
Fix

Horizontal Profiles

Position Reports

Time Latitude Longitude Heading Altitude Ground
Speed
09-Feb-19 18:29 34.890854 -120.449123 29 265ft 0kts
09-Feb-19 18:30 34.890854 -120.449123 29 265ft 0kts
09-Feb-19 18:31 34.890854 -120.449123 29 265ft 0kts
09-Feb-19 18:32 34.890854 -120.449123 29 265ft 0kts
09-Feb-19 18:33 34.890854 -120.449123 29 265ft 0kts
09-Feb-19 18:34 34.890854 -120.449123 29 265ft 0kts
09-Feb-19 18:35 34.890854 -120.449123 29 265ft 0kts
09-Feb-19 18:36 34.890886 -120.449100 29 265ft 1kts
09-Feb-19 18:37 34.891074 -120.446851 103 265ft 0kts
09-Feb-19 18:38 34.891324 -120.447286 19 265ft 5kts
09-Feb-19 18:39 34.891804 -120.446656 46 265ft 0kts
09-Feb-19 18:40 34.893605 -120.446861 317 265ft 40kts
09-Feb-19 18:41 34.910782 -120.460697 10 888ft 86kts
09-Feb-19 18:42 34.908571 -120.437048 129 1689ft 82kts
09-Feb-19 18:43 34.895729 -120.413582 126 2419ft 84kts
09-Feb-19 18:44 34.882884 -120.389042 126 3102ft 86kts
09-Feb-19 18:45 34.870788 -120.364102 127 3721ft 82kts
09-Feb-19 18:46 34.858709 -120.338512 125 4278ft 88kts
09-Feb-19 18:47 34.846674 -120.311983 120 4862ft 91kts
09-Feb-19 18:48 34.834624 -120.284488 125 5417ft 93kts
09-Feb-19 18:49 34.837139 -120.259457 347 5922ft 98kts
09-Feb-19 18:50 34.860024 -120.280071 309 6000ft 105kts
09-Feb-19 18:51 34.882053 -120.301986 313 5992ft 100kts
09-Feb-19 18:52 34.905084 -120.322444 309 5988ft 103kts
09-Feb-19 18:53 34.925769 -120.346469 307 5994ft 100kts
09-Feb-19 18:54 34.945484 -120.370175 304 6009ft 98kts
09-Feb-19 18:55 34.964478 -120.394692 304 6005ft 99kts
09-Feb-19 18:56 34.984020 -120.419580 314 5989ft 103kts
09-Feb-19 18:57 35.003967 -120.442136 304 6000ft 96kts
09-Feb-19 18:58 35.022564 -120.467605 308 6002ft 107kts
09-Feb-19 18:59 35.040148 -120.496804 293 6003ft 106kts
09-Feb-19 19:00 35.057862 -120.526087 307 6002ft 107kts
09-Feb-19 19:01 35.078820 -120.551449 308 6002ft 105kts
09-Feb-19 19:02 35.099814 -120.576297 308 6002ft 105kts
09-Feb-19 19:03 35.120642 -120.601009 308 6000ft 103kts
09-Feb-19 19:04 35.141247 -120.625509 308 6000ft 103kts
09-Feb-19 19:05 35.161820 -120.650056 307 6000ft 103kts
09-Feb-19 19:06 35.182404 -120.674748 307 6002ft 103kts
09-Feb-19 19:07 35.202957 -120.699546 307 6002ft 104kts
09-Feb-19 19:08 35.223585 -120.724555 307 6002ft 104kts
09-Feb-19 19:09 35.244131 -120.749575 307 6002ft 104kts
09-Feb-19 19:10 35.274262 -120.751058 357 6002ft 115kts
09-Feb-19 19:11 35.306169 -120.743471 11 6002ft 117kts
09-Feb-19 19:12 35.337639 -120.732726 11 6002ft 117kts
09-Feb-19 19:13 35.369387 -120.722293 10 6002ft 117kts
09-Feb-19 19:14 35.400781 -120.712325 9 6003ft 116kts
09-Feb-19 19:15 35.432397 -120.702346 9 6003ft 117kts
09-Feb-19 19:16 35.464066 -120.692422 9 6003ft 117kts
09-Feb-19 19:17 35.495959 -120.682490 9 6003ft 118kts
09-Feb-19 19:18 35.527742 -120.672652 9 6003ft 118kts
09-Feb-19 19:19 35.559567 -120.662860 9 6003ft 118kts
09-Feb-19 19:20 35.591356 -120.652456 19 6003ft 119kts
09-Feb-19 19:21 35.619989 -120.631832 35 6003ft 120kts
09-Feb-19 19:22 35.641418 -120.600769 65 6003ft 120kts
09-Feb-19 19:23 35.653940 -120.562839 80 6003ft 119kts
09-Feb-19 19:24 35.656576 -120.522736 91 6004ft 117kts
09-Feb-19 19:25 35.660920 -120.482510 83 6004ft 118kts
09-Feb-19 19:26 35.665356 -120.442407 91 6004ft 117kts
09-Feb-19 19:27 35.662827 -120.403220 105 6009ft 115kts
09-Feb-19 19:28 35.672216 -120.369732 354 6027ft 112kts
09-Feb-19 19:29 35.703777 -120.375568 354 5724ft 119kts
09-Feb-19 19:30 35.735483 -120.382836 339 5319ft 115kts
09-Feb-19 19:31 35.764953 -120.396725 330 4921ft 112kts
09-Feb-19 19:32 35.790836 -120.417073 320 4531ft 110kts
09-Feb-19 19:33 35.813926 -120.439689 309 4409ft 101kts
09-Feb-19 19:34 35.833630 -120.463897 298 4411ft 100kts
09-Feb-19 19:35 35.849833 -120.492316 299 4418ft 102kts
09-Feb-19 19:36 35.862271 -120.523347 290 4416ft 101kts
09-Feb-19 19:37 35.871302 -120.555722 279 4417ft 100kts
09-Feb-19 19:38 35.872750 -120.588047 217 4421ft 93kts
09-Feb-19 19:39 35.847353 -120.597311 190 4144ft 96kts
09-Feb-19 19:40 35.820695 -120.602156 192 3751ft 99kts
09-Feb-19 19:41 35.794014 -120.608314 190 3282ft 94kts
09-Feb-19 19:42 35.768207 -120.606568 168 2795ft 90kts
09-Feb-19 19:43 35.744336 -120.601208 174 2349ft 85kts
09-Feb-19 19:44 35.723807 -120.599579 186 1831ft 69kts
09-Feb-19 19:45 35.707757 -120.607903 209 1474ft 62kts
09-Feb-19 19:46 35.691931 -120.618294 208 1070ft 63kts
09-Feb-19 19:47 35.677295 -120.628116 204 806ft 34kts
09-Feb-19 19:48 35.673468 -120.630638 209 810ft 7kts
09-Feb-19 19:49 35.670564 -120.632591 207 811ft 1kts
09-Feb-19 19:50 35.670095 -120.634128 269 809ft 0kts
09-Feb-19 19:51 35.671029 -120.633775 25 808ft 12kts
09-Feb-19 19:52 35.673879 -120.632354 274 806ft 11kts
09-Feb-19 19:53 35.673807 -120.636197 268 803ft 11kts
09-Feb-19 19:54 35.673405 -120.637576 272 802ft 0kts
09-Feb-19 19:55 35.673405 -120.637583 273 802ft 0kts

Navigation Log

Ident Type
Flight plan parsing failed, navigation log unavailable